Time;durP1;ratioP1;P1;durP2;ratioP2;P2;SDS_P1;SDS_P2;PMS_P1;PMS_P2;Temp;Humidity;BMP_temperature;BMP_pressure;BME280_temperature;BME280_humidity;BME280_pressure;Samples;Min_cycle;Max_cycle;Signal;HPM_P1;HPM_P2
2024/03/16 00:00:14;;;;;;;12.52;1.85;;;;;;;7.68;59.46;100643.34;5000477;28;20115;-73
2024/03/16 00:02:40;;;;;;;20.08;3.30;;;;;;;7.58;59.75;100634.16;5044266;28;20183;-73
2024/03/16 00:05:06;;;;;;;21.33;2.92;;;;;;;7.71;59.72;100634.59;5020298;28;20037;-72
2024/03/16 00:07:32;;;;;;;16.00;2.90;;;;;;;7.59;60.29;100632.41;5006097;28;20124;-72
2024/03/16 00:09:57;;;;;;;14.05;2.85;;;;;;;8.02;58.69;100639.66;5019341;28;20033;-72
2024/03/16 00:12:23;;;;;;;29.67;5.05;;;;;;;8.12;58.25;100635.03;5012779;28;20048;-72
2024/03/16 00:14:48;;;;;;;18.85;2.60;;;;;;;7.88;59.06;100639.28;5014380;28;20037;-72
2024/03/16 00:17:14;;;;;;;16.08;2.53;;;;;;;7.90;59.26;100648.72;4994776;28;20061;-72
2024/03/16 00:19:39;;;;;;;18.63;2.38;;;;;;;7.95;59.11;100641.63;5014323;28;20148;-73
2024/03/16 00:22:05;;;;;;;17.98;3.33;;;;;;;7.85;58.95;100642.00;5012641;28;20037;-71
2024/03/16 00:24:31;;;;;;;18.90;3.40;;;;;;;8.05;58.72;100644.78;5007261;28;20029;-71
2024/03/16 00:27:00;;;;;;;20.20;3.55;;;;;;;7.91;59.13;100632.22;5010145;28;20116;-71
2024/03/16 00:29:26;;;;;;;14.18;2.67;;;;;;;7.69;59.66;100633.78;5008130;28;20545;-71
2024/03/16 00:31:51;;;;;;;27.90;2.72;;;;;;;8.13;58.63;100631.50;5012546;28;20036;-71
2024/03/16 00:34:17;;;;;;;26.95;4.07;;;;;;;8.14;58.17;100633.22;4989791;28;20651;-71
2024/03/16 00:36:42;;;;;;;16.17;3.67;;;;;;;7.69;59.63;100637.28;5014428;28;20066;-70
2024/03/16 00:39:14;;;;;;;20.45;3.05;;;;;;;8.15;58.40;100642.72;5007261;28;20045;-71
2024/03/16 00:41:42;;;;;;;18.88;4.18;;;;;;;8.04;58.47;100640.47;5011879;28;20075;-71
2024/03/16 00:44:08;;;;;;;34.03;5.05;;;;;;;8.08;57.66;100636.84;5008124;28;20056;-71
2024/03/16 00:46:34;;;;;;;29.27;4.45;;;;;;;8.35;57.64;100642.03;5010074;28;20053;-70
2024/03/16 00:48:59;;;;;;;11.80;2.45;;;;;;;8.31;57.54;100646.50;5007437;28;20055;-70
2024/03/16 00:51:27;;;;;;;18.15;3.13;;;;;;;8.33;57.87;100644.69;5006834;28;20543;-70
2024/03/16 00:53:53;;;;;;;19.77;3.13;;;;;;;7.89;58.74;100644.44;5006244;28;20078;-70
2024/03/16 00:56:20;;;;;;;24.20;3.70;;;;;;;8.10;58.35;100644.63;5007297;28;20029;-71
2024/03/16 00:58:46;;;;;;;17.80;3.33;;;;;;;7.94;58.78;100645.13;5015330;28;20036;-70
2024/03/16 01:01:12;;;;;;;18.38;3.30;;;;;;;7.91;59.07;100649.56;5009863;28;20977;-71
2024/03/16 01:03:37;;;;;;;16.48;2.65;;;;;;;8.09;58.50;100643.78;5011033;28;20095;-70
2024/03/16 01:06:03;;;;;;;17.02;2.78;;;;;;;8.13;58.05;100647.97;5013019;28;20032;-70
2024/03/16 01:08:29;;;;;;;15.05;2.13;;;;;;;8.44;57.53;100643.47;5004558;28;20136;-70
2024/03/16 01:10:55;;;;;;;20.80;5.18;;;;;;;8.60;56.98;100649.00;5007281;28;20037;-70
2024/03/16 01:13:21;;;;;;;16.17;3.50;;;;;;;8.35;57.47;100655.06;5005175;28;20045;-70
2024/03/16 01:15:47;;;;;;;25.80;3.20;;;;;;;8.03;58.64;100643.13;5011967;28;20040;-77
2024/03/16 01:18:12;;;;;;;20.15;4.10;;;;;;;8.14;58.48;100644.47;4996673;28;20045;-76
2024/03/16 01:20:42;;;;;;;23.58;4.18;;;;;;;8.27;57.90;100647.53;5006566;28;20036;-74
2024/03/16 01:23:08;;;;;;;19.77;3.58;;;;;;;8.04;58.59;100642.22;5012488;28;20785;-69
2024/03/16 01:25:34;;;;;;;21.33;3.75;;;;;;;7.52;59.52;100642.09;5008049;28;20113;-70
2024/03/16 01:27:59;;;;;;;23.50;3.28;;;;;;;8.04;58.66;100653.47;5012522;28;20136;-71
2024/03/16 01:30:25;;;;;;;21.08;3.90;;;;;;;8.08;58.37;100644.66;5010498;28;20056;-70
2024/03/16 01:32:50;;;;;;;15.70;3.25;;;;;;;8.02;58.69;100642.25;5017838;28;20506;-69
2024/03/16 01:35:16;;;;;;;16.13;3.42;;;;;;;8.32;58.14;100649.97;5014540;28;20029;-69
2024/03/16 01:37:42;;;;;;;20.55;4.53;;;;;;;8.17;58.83;100656.53;4994475;28;20038;-70
2024/03/16 01:40:08;;;;;;;21.45;4.15;;;;;;;8.38;57.79;100649.72;5014780;28;20122;-69
2024/03/16 01:42:33;;;;;;;22.17;3.90;;;;;;;8.07;59.14;100656.00;5007704;28;20128;-69
2024/03/16 01:45:07;;;;;;;28.67;4.05;;;;;;;8.40;57.68;100647.94;5014382;28;20453;-71
2024/03/16 01:47:33;;;;;;;30.50;4.28;;;;;;;8.27;58.22;100651.84;4983477;28;20596;-71
2024/03/16 01:49:59;;;;;;;19.92;3.78;;;;;;;8.09;58.55;100659.41;5014426;28;20029;-75
2024/03/16 01:52:26;;;;;;;22.38;4.13;;;;;;;8.38;58.17;100659.31;5009090;28;20045;-75
2024/03/16 01:54:51;;;;;;;15.20;3.65;;;;;;;8.50;57.77;100664.13;5006328;28;20064;-75
2024/03/16 01:57:17;;;;;;;21.42;4.90;;;;;;;8.07;59.07;100669.00;5012052;28;20072;-74
2024/03/16 01:59:42;;;;;;;18.60;3.20;;;;;;;7.85;59.75;100666.25;5011524;28;20303;-74
2024/03/16 02:02:31;;;;;;;25.27;4.20;;;;;;;8.26;59.10;100671.84;5012718;28;20060;-73
2024/03/16 02:04:56;;;;;;;21.55;4.82;;;;;;;8.00;59.63;100679.66;5012390;28;20025;-73
2024/03/16 02:07:22;;;;;;;25.70;4.20;;;;;;;8.12;59.15;100674.06;5022452;28;20529;-72
2024/03/16 02:09:47;;;;;;;28.95;4.53;;;;;;;8.03;60.25;100676.97;5013750;28;20507;-72
2024/03/16 02:12:13;;;;;;;17.73;4.47;;;;;;;7.95;60.87;100677.19;5011444;28;20041;-72
2024/03/16 02:14:38;;;;;;;25.38;5.75;;;;;;;7.61;61.91;100675.66;5012116;28;20032;-72
2024/03/16 02:17:04;;;;;;;26.88;6.95;;;;;;;7.47;62.21;100676.06;5011274;28;20032;-73
2024/03/16 02:19:33;;;;;;;28.98;5.03;;;;;;;7.27;63.72;100681.84;5015605;28;20042;-73
2024/03/16 02:21:58;;;;;;;18.70;4.28;;;;;;;7.53;62.91;100690.59;5010397;28;20037;-71
2024/03/16 02:24:24;;;;;;;22.38;4.55;;;;;;;7.50;63.17;100685.50;5010600;28;20040;-78
2024/03/16 02:26:51;;;;;;;18.25;5.18;;;;;;;7.58;62.86;100686.19;5023437;28;20028;-77
2024/03/16 02:29:18;;;;;;;22.90;6.75;;;;;;;7.30;63.43;100692.16;5012932;28;20040;-76
2024/03/16 02:31:43;;;;;;;28.95;6.50;;;;;;;7.18;63.38;100695.13;5013075;28;20107;-77
2024/03/16 02:34:09;;;;;;;18.48;4.72;;;;;;;7.19;63.15;100696.81;5018114;28;20045;-75
2024/03/16 02:36:34;;;;;;;15.27;3.97;;;;;;;7.01;63.24;100703.38;5011536;28;20033;-76
2024/03/16 02:39:00;;;;;;;26.70;5.25;;;;;;;6.78;63.71;100708.38;5017155;28;20061;-79
2024/03/16 02:41:26;;;;;;;23.02;4.22;;;;;;;6.91;63.12;100715.78;5001887;28;20392;-77
2024/03/16 02:43:51;;;;;;;17.13;3.60;;;;;;;6.85;62.90;100718.53;5014450;28;20044;-77
2024/03/16 02:46:17;;;;;;;14.88;3.78;;;;;;;6.28;64.86;100720.00;5013114;28;20045;-71
2024/03/16 02:48:45;;;;;;;16.48;3.10;;;;;;;6.53;64.08;100724.59;5006860;28;20376;-71
2024/03/16 02:51:10;;;;;;;22.85;4.00;;;;;;;6.68;63.41;100733.72;5016752;28;20041;-75
2024/03/16 02:53:36;;;;;;;18.13;3.33;;;;;;;6.94;62.29;100732.19;5010048;28;20099;-74
2024/03/16 02:56:01;;;;;;;20.70;2.67;;;;;;;6.15;63.91;100738.44;5015795;28;20037;-74
2024/03/16 02:58:27;;;;;;;8.15;1.92;;;;;;;6.14;63.67;100734.16;5009118;28;20054;-76
2024/03/16 03:00:53;;;;;;;7.85;1.73;;;;;;;5.96;64.11;100741.47;5018037;28;20037;-74
2024/03/16 03:03:18;;;;;;;10.73;1.88;;;;;;;6.01;63.04;100741.38;5013964;28;20123;-74
2024/03/16 03:05:44;;;;;;;9.02;1.23;;;;;;;5.91;63.22;100748.53;5007626;28;21760;-75
2024/03/16 03:08:10;;;;;;;4.20;1.17;;;;;;;5.89;63.13;100745.13;5019530;28;20067;-74
2024/03/16 03:10:36;;;;;;;9.90;1.48;;;;;;;5.97;63.08;100752.72;5006543;28;20121;-75
2024/03/16 03:13:02;;;;;;;7.10;1.50;;;;;;;5.63;64.04;100764.66;5016152;28;20060;-77
2024/03/16 03:15:28;;;;;;;8.13;2.20;;;;;;;6.14;62.47;100760.13;5007604;28;20498;-73
2024/03/16 03:17:53;;;;;;;5.88;1.52;;;;;;;6.04;62.91;100765.53;5015233;28;20068;-72
2024/03/16 03:20:20;;;;;;;8.07;2.00;;;;;;;6.11;62.54;100765.38;5010265;28;20095;-70
2024/03/16 03:22:46;;;;;;;3.25;0.73;;;;;;;5.87;63.26;100778.00;5001747;28;20057;-70
2024/03/16 03:25:12;;;;;;;8.73;1.75;;;;;;;6.06;62.66;100781.03;5011601;28;20038;-71
2024/03/16 03:27:37;;;;;;;5.88;1.25;;;;;;;6.23;62.18;100785.84;5006350;28;20258;-70
2024/03/16 03:30:03;;;;;;;4.47;1.48;;;;;;;5.85;62.91;100790.16;5012065;28;20217;-69
2024/03/16 03:32:29;;;;;;;2.42;0.32;;;;;;;5.80;62.97;100802.38;5003913;28;20506;-73
2024/03/16 03:34:54;;;;;;;5.80;0.60;;;;;;;5.40;63.49;100811.81;5015433;28;20040;-72
2024/03/16 03:37:20;;;;;;;2.90;0.68;;;;;;;5.56;63.58;100820.13;5006535;28;21144;-72
2024/03/16 03:39:48;;;;;;;3.13;0.38;;;;;;;5.61;62.63;100818.31;5010010;28;20040;-72
2024/03/16 03:42:14;;;;;;;3.97;0.50;;;;;;;5.64;62.92;100823.44;5007866;28;20033;-72
2024/03/16 03:44:49;;;;;;;5.88;1.13;;;;;;;5.74;62.63;100831.03;5008166;28;20025;-73
2024/03/16 03:47:16;;;;;;;8.60;2.28;;;;;;;5.33;63.10;100827.53;5006075;28;20052;-70
2024/03/16 03:49:50;;;;;;;2.38;0.70;;;;;;;5.14;64.06;100829.59;5009806;28;20059;-71
2024/03/16 03:52:15;;;;;;;5.55;0.70;;;;;;;5.30;63.54;100835.34;5007066;28;20045;-69
2024/03/16 03:54:41;;;;;;;3.50;0.90;;;;;;;4.97;64.62;100840.25;5008556;28;20041;-69
2024/03/16 03:57:06;;;;;;;2.75;0.40;;;;;;;5.24;63.84;100839.75;5009757;28;20033;-69
2024/03/16 03:59:32;;;;;;;9.38;0.95;;;;;;;4.85;64.97;100841.25;5007575;28;20033;-69
2024/03/16 04:01:57;;;;;;;4.15;1.30;;;;;;;5.02;64.53;100848.78;5008913;28;20071;-69
2024/03/16 04:04:23;;;;;;;2.97;1.00;;;;;;;4.80;65.03;100866.38;5011097;28;20087;-69
2024/03/16 04:06:48;;;;;;;6.80;1.27;;;;;;;5.07;64.64;100872.88;4989785;28;21155;-69
2024/03/16 04:09:14;;;;;;;3.72;0.30;;;;;;;4.22;65.49;100881.03;5005454;28;20041;-70
2024/03/16 04:11:39;;;;;;;1.83;0.70;;;;;;;4.56;64.13;100885.75;5023424;28;20475;-70
2024/03/16 04:14:06;;;;;;;4.80;0.47;;;;;;;4.34;64.36;100892.94;5009601;28;20532;-67
2024/03/16 04:16:32;;;;;;;4.53;0.63;;;;;;;4.44;64.00;100902.31;5007614;28;21147;-70
2024/03/16 04:18:57;;;;;;;6.22;0.60;;;;;;;4.21;64.53;100910.41;5011592;28;20060;-70
2024/03/16 04:21:23;;;;;;;4.78;0.45;;;;;;;4.60;63.37;100908.13;5010929;28;20029;-69
2024/03/16 04:23:48;;;;;;;6.78;0.68;;;;;;;4.49;63.06;100910.00;5003703;28;20045;-70
2024/03/16 04:26:14;;;;;;;7.78;0.70;;;;;;;4.59;62.51;100911.59;5011137;28;20038;-70
2024/03/16 04:28:39;;;;;;;7.07;0.95;;;;;;;4.15;63.47;100916.47;5005583;28;20137;-71
2024/03/16 04:31:05;;;;;;;3.80;0.22;;;;;;;4.50;62.92;100922.94;5012233;28;20033;-68
2024/03/16 04:33:31;;;;;;;5.47;0.55;;;;;;;4.47;62.84;100924.69;5010253;28;21066;-69
2024/03/16 04:35:56;;;;;;;10.60;1.08;;;;;;;4.34;63.15;100936.94;5008895;28;20645;-70
2024/03/16 04:38:22;;;;;;;11.48;0.45;;;;;;;4.60;62.25;100944.38;5007977;28;20071;-69
2024/03/16 04:40:48;;;;;;;9.32;1.02;;;;;;;4.00;63.75;100948.56;5005268;28;20029;-69
2024/03/16 04:43:16;;;;;;;13.35;0.90;;;;;;;4.07;63.00;100961.41;5012446;28;20530;-70
2024/03/16 04:45:46;;;;;;;17.88;1.75;;;;;;;3.63;63.76;100958.44;5001135;28;20443;-70
2024/03/16 04:48:11;;;;;;;10.65;1.17;;;;;;;3.77;63.22;100971.22;5011914;28;20132;-70
2024/03/16 04:50:37;;;;;;;13.13;1.20;;;;;;;4.12;62.87;100973.44;5004073;28;20033;-70
2024/03/16 04:53:03;;;;;;;13.13;1.02;;;;;;;4.12;62.57;100977.72;5012415;28;20050;-70
2024/03/16 04:55:28;;;;;;;9.88;1.75;;;;;;;4.24;61.99;100980.19;5008940;28;20052;-70
2024/03/16 04:57:54;;;;;;;17.45;2.20;;;;;;;4.34;61.63;100983.50;5005260;28;20048;-70
2024/03/16 05:00:19;;;;;;;7.72;0.82;;;;;;;4.17;61.57;100994.09;5011627;28;20072;-70
2024/03/16 05:02:45;;;;;;;13.52;1.67;;;;;;;4.13;61.95;100997.56;5003609;28;20635;-68
2024/03/16 05:05:10;;;;;;;8.63;1.77;;;;;;;4.16;61.76;101002.69;5011828;28;20487;-68
2024/03/16 05:07:36;;;;;;;15.55;0.95;;;;;;;4.36;61.20;101003.34;5001448;28;21081;-68
2024/03/16 05:10:03;;;;;;;9.13;1.42;;;;;;;4.30;60.98;101018.94;5010497;28;20641;-68
2024/03/16 05:12:29;;;;;;;10.77;1.85;;;;;;;3.86;62.20;101032.34;5005662;28;20168;-69
2024/03/16 05:14:54;;;;;;;18.50;1.15;;;;;;;3.62;62.00;101029.09;5006756;28;20909;-68
2024/03/16 05:17:20;;;;;;;23.00;3.08;;;;;;;3.59;62.09;101042.91;5006068;28;20125;-68
2024/03/16 05:19:46;;;;;;;21.90;1.30;;;;;;;3.65;62.17;101044.59;5007821;28;20124;-68
2024/03/16 05:22:11;;;;;;;15.38;1.60;;;;;;;3.79;62.02;101044.47;5012860;28;20041;-70
2024/03/16 05:24:37;;;;;;;11.00;0.80;;;;;;;3.59;62.67;101050.66;5003579;28;20834;-71
2024/03/16 05:27:03;;;;;;;3.90;1.35;;;;;;;3.81;61.61;101055.66;5012557;28;20626;-69
2024/03/16 05:29:28;;;;;;;14.63;0.95;;;;;;;3.66;61.69;101066.97;5007178;28;20029;-70
2024/03/16 05:32:03;;;;;;;8.98;1.02;;;;;;;3.51;61.70;101069.69;5006773;28;20573;-69
2024/03/16 05:34:29;;;;;;;7.60;0.80;;;;;;;3.43;60.42;101077.50;5002776;28;20044;-70
2024/03/16 05:36:54;;;;;;;8.70;1.52;;;;;;;3.79;59.15;101085.84;5007515;28;20372;-70
2024/03/16 05:39:20;;;;;;;10.48;1.33;;;;;;;3.87;58.73;101096.09;5010566;28;20033;-69
2024/03/16 05:41:45;;;;;;;5.57;0.95;;;;;;;3.85;58.10;101103.91;5005750;28;20487;-69
2024/03/16 05:44:11;;;;;;;7.70;0.60;;;;;;;3.71;57.16;101101.41;5008802;28;20037;-70
2024/03/16 05:46:36;;;;;;;7.60;0.50;;;;;;;3.74;57.44;101121.22;5008151;28;20029;-70
2024/03/16 05:49:02;;;;;;;4.78;0.30;;;;;;;3.70;57.60;101122.09;5008642;28;20103;-71
2024/03/16 05:51:28;;;;;;;6.60;0.45;;;;;;;3.40;57.54;101134.34;5014222;28;20110;-71
2024/03/16 05:53:54;;;;;;;8.63;0.95;;;;;;;3.52;56.65;101138.59;5005556;28;20041;-71
2024/03/16 05:56:21;;;;;;;6.25;0.68;;;;;;;3.68;56.27;101136.78;5010406;28;20025;-72
2024/03/16 05:58:46;;;;;;;9.68;1.08;;;;;;;3.32;57.08;101154.22;5004720;28;20222;-71
2024/03/16 06:01:11;;;;;;;7.53;1.35;;;;;;;3.85;55.93;101154.72;5010394;28;20542;-71
2024/03/16 06:03:37;;;;;;;8.18;1.10;;;;;;;4.07;55.92;101161.44;5006287;28;20041;-71
2024/03/16 06:06:03;;;;;;;7.78;0.55;;;;;;;3.68;56.34;101171.22;5007977;28;20065;-70
2024/03/16 06:08:28;;;;;;;6.07;0.88;;;;;;;4.06;55.72;101175.25;5010941;28;20042;-69
2024/03/16 06:10:54;;;;;;;4.30;0.60;;;;;;;4.36;55.62;101181.03;5008435;28;20036;-69
2024/03/16 06:13:19;;;;;;;7.55;0.90;;;;;;;4.36;55.62;101184.50;5012758;28;20095;-68
2024/03/16 06:15:45;;;;;;;15.27;1.00;;;;;;;4.22;55.66;101189.78;5008586;28;20886;-69
2024/03/16 06:18:10;;;;;;;5.90;1.42;;;;;;;4.08;55.96;101198.53;5010548;28;20068;-70
2024/03/16 06:20:36;;;;;;;5.05;0.70;;;;;;;3.96;55.95;101197.78;5014799;28;20028;-70
2024/03/16 06:23:01;;;;;;;8.52;2.17;;;;;;;4.10;55.51;101199.41;5006747;28;20915;-72
2024/03/16 06:25:29;;;;;;;5.22;0.95;;;;;;;3.78;55.78;101210.78;5016817;28;20067;-73
2024/03/16 06:28:05;;;;;;;7.55;1.90;;;;;;;4.06;54.99;101215.81;5007657;28;20040;-73
2024/03/16 06:30:30;;;;;;;11.63;1.30;;;;;;;4.03;54.88;101229.63;5015086;28;20171;-71
2024/03/16 06:33:11;;;;;;;11.38;1.33;;;;;;;4.14;54.01;101224.34;5006988;28;20637;-74
2024/03/16 06:35:36;;;;;;;8.27;1.55;;;;;;;4.33;53.61;101225.91;5004108;28;20029;-71
2024/03/16 06:38:05;;;;;;;9.02;1.40;;;;;;;4.21;53.54;101236.38;5007066;28;20098;-71
2024/03/16 06:40:30;;;;;;;9.10;0.60;;;;;;;4.32;53.44;101239.75;5015218;28;20041;-70
2024/03/16 06:42:56;;;;;;;10.75;0.73;;;;;;;4.40;53.36;101243.09;5008158;28;20087;-75
2024/03/16 06:45:21;;;;;;;4.95;0.47;;;;;;;4.35;53.42;101247.47;5014748;28;20025;-73
2024/03/16 06:47:47;;;;;;;9.27;0.88;;;;;;;4.07;54.27;101253.72;5002692;28;20657;-69
2024/03/16 06:50:15;;;;;;;7.03;0.30;;;;;;;3.95;54.78;101267.59;5017520;28;20025;-68
2024/03/16 06:52:41;;;;;;;8.15;0.95;;;;;;;4.10;54.75;101269.25;5005517;28;20045;-68
2024/03/16 06:55:09;;;;;;;5.97;0.68;;;;;;;4.13;55.26;101272.66;5014847;28;20083;-70
2024/03/16 06:57:35;;;;;;;7.45;0.47;;;;;;;4.06;55.27;101283.06;5008925;28;20032;-70
2024/03/16 07:00:01;;;;;;;6.72;0.95;;;;;;;4.18;55.07;101282.97;5009697;28;22373;-70
2024/03/16 07:02:27;;;;;;;8.77;2.38;;;;;;;4.16;55.14;101295.94;5013412;28;20048;-71
2024/03/16 07:04:55;;;;;;;12.00;0.50;;;;;;;4.35;54.44;101301.81;5007353;28;20033;-69
2024/03/16 07:07:21;;;;;;;6.38;0.52;;;;;;;4.22;54.05;101313.97;5014013;28;20050;-69
2024/03/16 07:09:46;;;;;;;8.35;0.30;;;;;;;4.27;52.75;101319.13;5005744;28;20040;-72
2024/03/16 07:12:12;;;;;;;3.55;0.30;;;;;;;4.17;51.87;101327.81;5021124;28;23702;-69
2024/03/16 07:14:37;;;;;;;7.57;0.43;;;;;;;4.24;50.83;101324.31;5008893;28;20452;-69
2024/03/16 07:17:03;;;;;;;3.75;0.22;;;;;;;4.22;51.34;101331.22;5008242;28;20859;-69
2024/03/16 07:19:28;;;;;;;3.65;0.85;;;;;;;4.43;50.96;101336.28;5009464;28;20037;-69
2024/03/16 07:21:55;;;;;;;4.80;0.20;;;;;;;4.75;50.34;101335.16;5010129;28;20047;-69
2024/03/16 07:24:21;;;;;;;3.67;0.63;;;;;;;4.42;51.42;101350.06;5009435;28;20507;-72
2024/03/16 07:26:47;;;;;;;6.88;0.52;;;;;;;4.35;51.61;101358.75;5004894;28;20059;-69
2024/03/16 07:29:12;;;;;;;3.78;0.35;;;;;;;4.22;52.06;101360.56;5006781;28;20041;-70
2024/03/16 07:31:38;;;;;;;2.97;0.40;;;;;;;4.59;51.91;101362.06;5010131;28;20607;-69
2024/03/16 07:34:03;;;;;;;2.40;0.22;;;;;;;4.34;51.73;101363.94;5009931;28;20044;-70
2024/03/16 07:36:30;;;;;;;8.05;0.65;;;;;;;4.21;51.91;101368.34;5011731;28;20044;-76
2024/03/16 07:38:56;;;;;;;3.65;0.40;;;;;;;4.75;50.66;101379.19;5009418;28;20554;-75
2024/03/16 07:41:23;;;;;;;8.15;1.27;;;;;;;4.90;50.67;101382.56;5013509;28;20059;-72
2024/03/16 07:43:48;;;;;;;3.25;0.25;;;;;;;5.08;50.53;101385.00;5004539;28;20033;-73
2024/03/16 07:46:14;;;;;;;5.47;0.82;;;;;;;4.63;51.06;101394.81;5001487;28;20122;-74
2024/03/16 07:48:41;;;;;;;11.02;0.80;;;;;;;4.71;51.04;101400.81;5002109;28;20128;-75
2024/03/16 07:51:09;;;;;;;8.40;0.40;;;;;;;4.64;51.99;101407.75;5014146;28;20399;-75
2024/03/16 07:53:35;;;;;;;6.35;0.32;;;;;;;4.29;53.75;101414.88;5013730;28;20034;-72
2024/03/16 07:56:01;;;;;;;6.97;1.65;;;;;;;3.98;53.84;101423.63;5004657;28;20037;-73
2024/03/16 07:58:27;;;;;;;2.58;0.20;;;;;;;4.16;53.72;101424.41;5011746;28;20041;-71
2024/03/16 08:00:52;;;;;;;3.08;0.20;;;;;;;4.30;53.14;101416.59;5001099;28;20033;-74
2024/03/16 08:03:18;;;;;;;7.00;1.90;;;;;;;4.79;52.33;101427.50;5013583;28;20087;-71
2024/03/16 08:05:45;;;;;;;7.05;0.50;;;;;;;4.73;52.48;101437.91;5011943;28;20048;-74
2024/03/16 08:08:11;;;;;;;12.73;0.38;;;;;;;5.00;52.85;101446.38;5011799;28;20037;-73
2024/03/16 08:10:36;;;;;;;4.57;0.50;;;;;;;4.84;52.07;101445.59;5013423;28;20033;-72
2024/03/16 08:13:02;;;;;;;7.57;0.73;;;;;;;5.17;51.84;101449.72;5001959;28;20048;-74
2024/03/16 08:15:28;;;;;;;3.22;0.38;;;;;;;5.39;51.41;101446.91;5013105;28;20703;-72
2024/03/16 08:17:56;;;;;;;4.97;0.55;;;;;;;5.27;50.99;101457.41;4991461;28;20075;-72
2024/03/16 08:20:22;;;;;;;6.60;0.70;;;;;;;5.23;50.82;101467.81;5012045;28;20048;-74
2024/03/16 08:22:53;;;;;;;3.55;0.68;;;;;;;5.19;50.46;101457.44;5004196;28;20128;-74
2024/03/16 08:25:19;;;;;;;4.40;0.75;;;;;;;5.19;49.73;101463.53;5014061;28;20032;-75
2024/03/16 08:27:45;;;;;;;5.13;0.22;;;;;;;5.64;48.47;101466.56;5008274;28;20041;-74
2024/03/16 08:30:11;;;;;;;2.95;0.20;;;;;;;5.25;48.06;101481.59;5008392;28;20521;-74
2024/03/16 08:32:36;;;;;;;9.48;0.45;;;;;;;5.41;47.03;101478.88;5008415;28;20053;-74
2024/03/16 08:35:03;;;;;;;5.47;0.20;;;;;;;5.54;46.50;101472.69;5005238;28;20340;-72
2024/03/16 08:37:30;;;;;;;8.65;0.98;;;;;;;5.47;45.40;101484.00;5015321;28;20560;-71
2024/03/16 08:39:56;;;;;;;6.65;0.85;;;;;;;5.17;44.86;101485.13;5007606;28;20033;-75
2024/03/16 08:42:21;;;;;;;5.32;0.50;;;;;;;5.80;45.09;101489.75;5003806;28;20021;-76
2024/03/16 08:44:47;;;;;;;3.80;0.30;;;;;;;5.72;45.01;101488.97;5015822;28;20193;-76
2024/03/16 08:47:12;;;;;;;3.35;0.80;;;;;;;5.87;45.09;101499.19;5012945;28;20055;-79
2024/03/16 08:49:38;;;;;;;1.38;0.35;;;;;;;6.38;44.98;101496.06;5010098;28;20494;-72
2024/03/16 08:52:03;;;;;;;3.90;0.50;;;;;;;5.84;44.58;101496.63;5005460;28;21027;-73
2024/03/16 08:54:29;;;;;;;4.45;1.02;;;;;;;6.29;44.22;101499.63;5008318;28;20470;-66
2024/03/16 08:56:55;;;;;;;8.85;1.17;;;;;;;6.41;43.92;101511.59;4999696;28;20043;-69
2024/03/16 08:59:21;;;;;;;1.70;0.57;;;;;;;6.37;44.55;101515.94;5009008;28;20052;-71
2024/03/16 09:01:46;;;;;;;7.07;0.20;;;;;;;6.46;44.62;101521.06;5008545;28;20040;-68
2024/03/16 09:04:12;;;;;;;3.90;0.20;;;;;;;6.55;45.19;101525.28;5008765;28;20881;-67
2024/03/16 09:06:54;;;;;;;3.30;1.13;;;;;;;6.45;45.22;101534.91;5012218;28;20041;-69
2024/03/16 09:09:21;;;;;;;4.95;0.65;;;;;;;6.16;46.10;101531.75;4984750;28;20041;-69
2024/03/16 09:11:47;;;;;;;3.38;0.40;;;;;;;5.89;47.20;101549.34;5007827;28;20036;-68
2024/03/16 09:14:13;;;;;;;4.50;0.40;;;;;;;5.78;47.59;101556.34;5004409;28;20113;-71
2024/03/16 09:16:41;;;;;;;2.85;0.55;;;;;;;6.78;47.48;101563.09;5027769;28;20030;-70
2024/03/16 09:19:07;;;;;;;6.05;0.50;;;;;;;7.28;46.27;101559.75;5000402;28;20072;-70
2024/03/16 09:21:32;;;;;;;7.00;0.60;;;;;;;7.03;46.73;101569.66;5011407;28;20437;-70
2024/03/16 09:23:58;;;;;;;7.03;0.70;;;;;;;6.32;47.81;101572.28;5002389;28;20056;-70
2024/03/16 09:26:24;;;;;;;6.13;0.30;;;;;;;6.71;47.65;101577.91;5006637;28;20045;-70
2024/03/16 09:28:51;;;;;;;14.30;0.40;;;;;;;6.63;47.72;101580.56;5009253;28;20045;-72
2024/03/16 09:31:17;;;;;;;9.52;1.33;;;;;;;5.91;48.17;101583.91;4994444;28;20128;-73
2024/03/16 09:33:43;;;;;;;6.40;0.60;;;;;;;6.30;48.43;101587.00;5016315;28;20033;-72
2024/03/16 09:36:09;;;;;;;11.25;1.65;;;;;;;6.73;46.76;101583.94;5001367;28;20105;-68
2024/03/16 09:38:35;;;;;;;10.23;0.95;;;;;;;7.59;44.48;101590.53;5009115;28;20131;-68
2024/03/16 09:41:00;;;;;;;12.23;0.52;;;;;;;6.73;43.81;101586.53;5001372;28;20247;-70
2024/03/16 09:43:28;;;;;;;10.55;0.77;;;;;;;7.27;43.22;101589.25;5008692;28;20534;-69
2024/03/16 09:45:58;;;;;;;9.32;0.98;;;;;;;7.99;41.94;101591.59;5008077;28;20672;-70
2024/03/16 09:48:24;;;;;;;3.60;0.30;;;;;;;7.26;42.53;101597.91;5021344;28;20095;-72
2024/03/16 09:50:55;;;;;;;3.03;0.20;;;;;;;7.61;42.10;101604.38;5013055;28;20527;-70
2024/03/16 09:53:34;;;;;;;3.33;0.47;;;;;;;8.22;41.41;101612.00;5014038;28;20539;-71
2024/03/16 09:56:04;;;;;;;11.55;0.57;;;;;;;8.01;41.39;101614.13;5001991;28;20044;-70
2024/03/16 09:58:30;;;;;;;9.73;0.85;;;;;;;7.36;42.02;101618.59;5013577;28;20044;-70
2024/03/16 10:01:00;;;;;;;8.43;0.70;;;;;;;7.05;42.14;101629.44;5006368;28;20479;-71
2024/03/16 10:03:26;;;;;;;6.93;0.50;;;;;;;7.72;41.83;101633.69;5012810;28;20033;-70
2024/03/16 10:05:52;;;;;;;8.85;0.50;;;;;;;7.50;40.66;101642.66;5014903;28;20108;-72
2024/03/16 10:08:17;;;;;;;5.05;0.65;;;;;;;8.33;40.49;101642.16;5004222;28;20071;-69
2024/03/16 10:10:44;;;;;;;7.95;0.50;;;;;;;8.42;40.76;101645.50;5015520;28;20063;-69
2024/03/16 10:13:11;;;;;;;7.65;0.65;;;;;;;7.73;39.94;101645.81;5003527;28;20087;-69
2024/03/16 10:15:46;;;;;;;4.93;0.35;;;;;;;8.05;40.79;101652.22;5014870;28;20261;-70
2024/03/16 10:18:16;;;;;;;4.65;0.60;;;;;;;6.68;42.85;101671.44;5001867;28;20033;-69
2024/03/16 10:20:46;;;;;;;4.70;0.77;;;;;;;6.36;44.14;101670.03;5015609;28;20044;-69
2024/03/16 10:23:16;;;;;;;8.25;0.88;;;;;;;7.29;43.82;101660.31;5003486;28;20028;-69
2024/03/16 10:25:48;;;;;;;8.45;0.98;;;;;;;7.99;42.00;101673.16;5016773;28;20022;-70
2024/03/16 10:28:16;;;;;;;5.20;0.40;;;;;;;8.99;40.18;101658.31;5005835;28;20578;-69
2024/03/16 10:30:45;;;;;;;7.82;0.75;;;;;;;9.01;40.25;101671.28;5015305;28;20040;-69
2024/03/16 10:33:11;;;;;;;6.97;0.77;;;;;;;8.81;40.86;101675.19;5009979;28;20583;-67
2024/03/16 10:35:39;;;;;;;5.75;0.70;;;;;;;8.71;40.25;101684.06;5012322;28;20418;-67
2024/03/16 10:38:16;;;;;;;7.13;1.02;;;;;;;8.88;39.21;101676.78;5000205;28;20041;-70
2024/03/16 10:40:42;;;;;;;5.72;0.65;;;;;;;8.27;40.30;101694.41;5012249;28;20079;-69
2024/03/16 10:43:15;;;;;;;14.60;1.00;;;;;;;7.87;41.43;101694.16;4997847;28;20495;-67
2024/03/16 10:45:45;;;;;;;15.90;1.05;;;;;;;8.39;41.22;101702.88;5010655;28;20037;-67
2024/03/16 10:48:14;;;;;;;11.23;0.63;;;;;;;8.60;40.67;101706.84;5000844;28;20494;-68
2024/03/16 10:50:43;;;;;;;10.25;0.70;;;;;;;7.38;41.38;101720.84;5010277;28;20040;-68
2024/03/16 10:53:10;;;;;;;6.63;0.50;;;;;;;7.42;42.00;101735.53;4998805;28;20040;-71
2024/03/16 10:55:40;;;;;;;10.52;0.60;;;;;;;8.96;39.83;101721.81;5010631;28;20037;-69
2024/03/16 10:58:28;;;;;;;9.70;0.85;;;;;;;9.48;38.79;101726.84;4989554;28;20041;-69
2024/03/16 11:01:07;;;;;;;7.43;0.68;;;;;;;9.80;37.56;101737.44;5010223;28;20072;-68
2024/03/16 11:03:36;;;;;;;15.73;2.22;;;;;;;9.87;37.91;101739.91;5007787;28;20045;-68
2024/03/16 11:06:09;;;;;;;12.30;1.95;;;;;;;8.77;38.18;101751.72;5002659;28;20037;-69
2024/03/16 11:08:42;;;;;;;4.43;0.98;;;;;;;9.55;37.65;101757.13;5010126;28;20570;-69
2024/03/16 11:11:21;;;;;;;8.43;1.20;;;;;;;9.36;40.01;101760.09;5008438;28;20052;-70
2024/03/16 11:13:55;;;;;;;9.93;1.30;;;;;;;8.77;39.59;101773.44;5009245;28;20577;-69
2024/03/16 11:16:33;;;;;;;5.18;0.60;;;;;;;8.04;40.90;101778.06;4998876;28;20751;-69
2024/03/16 11:19:07;;;;;;;6.38;0.93;;;;;;;8.49;39.95;101783.44;5010183;28;20135;-70
2024/03/16 11:21:36;;;;;;;11.93;1.65;;;;;;;8.67;39.11;101773.59;5006670;28;20167;-69
2024/03/16 11:24:13;;;;;;;8.15;0.77;;;;;;;10.50;38.13;101785.41;5014226;28;20033;-69
2024/03/16 11:26:39;;;;;;;6.07;1.15;;;;;;;10.13;37.44;101781.09;5014766;28;20029;-68